Carnegie, Oklahoma
Current Conditions -  °F | °C
As of 12:53 PM on Friday 28 Nov 2014 (Local Time) from KHBR Reporting Station
Clear Clear  
Wind Chill: 62°   Ceiling: Unl
Heat Index: 62°   Visibility: 10mi
Dew Point: 40°   Wind: 22mph
Humidity: 44%   Direction: 200°SSW
Pressure: 29.95"   Gusts: NA
Location:  35.1°N, 98.6°W
Report Text: KHBR 281853Z AUTO 20019KT 10SM CLR 17/04 A2995 RMK AO2 PK WND 21026/1804 SLP140 T01670044
Loading
Personal Weather Stations






























Interactive Weather Map New forecast layout! Learn more

10-Day Weather Forecast

Advertisements
Track Severe Weather on mobile